Time;durP1;ratioP1;P1;durP2;ratioP2;P2;SDS_P1;SDS_P2;PMS_P1;PMS_P2;Temp;Humidity;BMP_temperature;BMP_pressure;BME280_temperature;BME280_humidity;BME280_pressure;Samples;Min_cycle;Max_cycle;Signal;HPM_P1;HPM_P2
2022/07/20 00:01:46;;;;;;;5.53;2.38;;;;;;;;;;4950610;28;20604;-71
2022/07/20 00:04:12;;;;;;;7.60;3.27;;;;;;;;;;4951591;28;20070;-71
2022/07/20 00:06:37;;;;;;;6.05;2.60;;;;;;;;;;4952780;28;20786;-70
2022/07/20 00:11:46;;;;;;;5.13;2.20;;;;;;;;;;4947027;28;20114;-70
2022/07/20 00:14:12;;;;;;;11.57;2.83;;;;;;;;;;4951570;28;20465;-71
2022/07/20 00:16:37;;;;;;;6.25;2.97;;;;;;;;;;4952160;28;20027;-70
2022/07/20 00:19:03;;;;;;;7.70;2.80;;;;;;;;;;4946472;29;20023;-72
2022/07/20 00:21:28;;;;;;;10.27;3.22;;;;;;;;;;4946702;28;20291;-71
2022/07/20 00:23:54;;;;;;;10.77;3.30;;;;;;;;;;4951783;28;20070;-72
2022/07/20 00:26:19;;;;;;;7.75;2.53;;;;;;;;;;4953371;28;20027;-70
2022/07/20 00:28:44;;;;;;;6.50;2.38;;;;;;;;;;4950411;28;20042;-71
2022/07/20 00:31:10;;;;;;;11.03;2.67;;;;;;;;;;4951027;28;20525;-70
2022/07/20 00:33:35;;;;;;;18.17;2.90;;;;;;;;;;4951280;28;20019;-70
2022/07/20 00:36:01;;;;;;;11.25;2.83;;;;;;;;;;4950756;28;20015;-71
2022/07/20 00:38:26;;;;;;;4.40;2.38;;;;;;;;;;4952604;28;20027;-71
2022/07/20 00:40:51;;;;;;;21.17;2.93;;;;;;;;;;4949490;28;20046;-71
2022/07/20 00:43:16;;;;;;;5.45;2.78;;;;;;;;;;4950807;28;20655;-70
2022/07/20 00:45:41;;;;;;;9.07;2.70;;;;;;;;;;4951985;28;20107;-71
2022/07/20 00:48:07;;;;;;;18.70;3.47;;;;;;;;;;4951963;28;20028;-70
2022/07/20 00:50:32;;;;;;;7.10;2.60;;;;;;;;;;4951464;28;20058;-71
2022/07/20 00:52:58;;;;;;;5.03;3.23;;;;;;;;;;4948778;28;20053;-71
2022/07/20 00:55:23;;;;;;;4.07;2.85;;;;;;;;;;4952356;28;20282;-70
2022/07/20 00:57:49;;;;;;;9.00;2.93;;;;;;;;;;4950147;28;20027;-70
2022/07/20 01:00:14;;;;;;;3.83;2.27;;;;;;;;;;4951856;28;20279;-70
2022/07/20 01:02:40;;;;;;;9.20;2.80;;;;;;;;;;4948215;28;20659;-70
2022/07/20 01:05:13;;;;;;;7.18;3.40;;;;;;;;;;4952518;28;20011;-69
2022/07/20 01:07:39;;;;;;;7.05;3.00;;;;;;;;;;4949913;28;20027;-72
2022/07/20 01:10:04;;;;;;;7.85;2.90;;;;;;;;;;4952431;28;20019;-70
2022/07/20 01:12:29;;;;;;;12.95;2.63;;;;;;;;;;4942021;28;20035;-70
2022/07/20 01:14:55;;;;;;;14.60;3.38;;;;;;;;;;4951184;28;20031;-68
2022/07/20 01:17:20;;;;;;;9.00;2.78;;;;;;;;;;4951833;28;20090;-69
2022/07/20 01:19:45;;;;;;;7.90;2.50;;;;;;;;;;4944795;28;20070;-69
2022/07/20 01:22:11;;;;;;;8.63;3.30;;;;;;;;;;4949924;28;20463;-69
2022/07/20 01:24:36;;;;;;;8.93;2.80;;;;;;;;;;4951384;28;20472;-72
2022/07/20 01:27:03;;;;;;;6.68;2.70;;;;;;;;;;4949768;28;20050;-70
2022/07/20 01:29:29;;;;;;;7.30;2.75;;;;;;;;;;4951484;28;20110;-71
2022/07/20 01:31:54;;;;;;;11.03;3.17;;;;;;;;;;4948613;28;20465;-70
2022/07/20 01:34:19;;;;;;;7.07;3.00;;;;;;;;;;4951097;28;20035;-70
2022/07/20 01:36:44;;;;;;;14.70;3.28;;;;;;;;;;4950044;28;20329;-70
2022/07/20 01:39:10;;;;;;;4.28;2.70;;;;;;;;;;4949573;28;20055;-70
2022/07/20 01:41:35;;;;;;;4.73;3.03;;;;;;;;;;4950532;28;20035;-73
2022/07/20 01:44:00;;;;;;;4.87;2.80;;;;;;;;;;4951337;28;20803;-70
2022/07/20 01:46:25;;;;;;;8.20;3.20;;;;;;;;;;4950825;28;20150;-72
2022/07/20 01:48:50;;;;;;;7.03;3.00;;;;;;;;;;4950322;28;20271;-70
2022/07/20 01:51:15;;;;;;;5.80;2.63;;;;;;;;;;4949658;29;20019;-71
2022/07/20 01:53:41;;;;;;;8.13;2.73;;;;;;;;;;4949390;28;20098;-70
2022/07/20 01:56:06;;;;;;;9.07;3.00;;;;;;;;;;4951490;28;20468;-71
2022/07/20 01:58:31;;;;;;;5.63;2.92;;;;;;;;;;4948119;28;20110;-70
2022/07/20 02:00:56;;;;;;;11.35;2.90;;;;;;;;;;4948587;29;20019;-70
2022/07/20 02:03:22;;;;;;;8.07;2.50;;;;;;;;;;4948542;28;20059;-71
2022/07/20 02:05:47;;;;;;;7.37;2.83;;;;;;;;;;4953691;28;20024;-70
2022/07/20 02:08:12;;;;;;;6.60;2.67;;;;;;;;;;4953940;29;20016;-71
2022/07/20 02:10:37;;;;;;;4.97;2.80;;;;;;;;;;4952913;28;20948;-70
2022/07/20 02:13:02;;;;;;;5.18;2.50;;;;;;;;;;4952636;29;20027;-70
2022/07/20 02:18:12;;;;;;;9.27;2.83;;;;;;;;;;4953397;28;20354;-70
2022/07/20 02:20:37;;;;;;;7.50;2.92;;;;;;;;;;4952294;28;20472;-70
2022/07/20 02:23:04;;;;;;;8.23;2.42;;;;;;;;;;4952681;28;20495;-71
2022/07/20 02:25:29;;;;;;;8.95;2.90;;;;;;;;;;4955394;28;20012;-70
2022/07/20 02:27:54;;;;;;;3.47;2.37;;;;;;;;;;4953371;28;20023;-72
2022/07/20 02:30:20;;;;;;;6.63;2.75;;;;;;;;;;4953618;28;20038;-70
2022/07/20 02:32:45;;;;;;;6.07;2.83;;;;;;;;;;4952933;28;20023;-71
2022/07/20 02:35:10;;;;;;;6.93;2.78;;;;;;;;;;4954546;28;20310;-70
2022/07/20 02:37:35;;;;;;;8.03;2.90;;;;;;;;;;4954842;28;20033;-70
2022/07/20 02:40:01;;;;;;;11.03;2.43;;;;;;;;;;4945514;28;20026;-70
2022/07/20 02:42:26;;;;;;;10.73;3.33;;;;;;;;;;4950797;28;20031;-70
2022/07/20 02:44:51;;;;;;;13.03;3.20;;;;;;;;;;4952807;28;20043;-70
2022/07/20 02:47:16;;;;;;;5.07;2.87;;;;;;;;;;4954250;28;20543;-70
2022/07/20 02:49:41;;;;;;;4.30;2.17;;;;;;;;;;4952802;28;20034;-70
2022/07/20 02:52:06;;;;;;;9.37;2.47;;;;;;;;;;4950339;28;20591;-70
2022/07/20 02:54:31;;;;;;;6.27;2.73;;;;;;;;;;4953934;28;20031;-71
2022/07/20 02:56:57;;;;;;;12.90;3.20;;;;;;;;;;4951900;29;20022;-70
2022/07/20 02:59:22;;;;;;;6.23;2.67;;;;;;;;;;4947463;28;20039;-71
2022/07/20 03:01:47;;;;;;;8.17;3.33;;;;;;;;;;4951715;28;20037;-70
2022/07/20 03:04:12;;;;;;;6.30;2.73;;;;;;;;;;4954677;28;20247;-70
2022/07/20 03:06:37;;;;;;;4.93;2.27;;;;;;;;;;4953936;28;20275;-71
2022/07/20 03:09:03;;;;;;;8.57;3.20;;;;;;;;;;4946134;28;20498;-73
2022/07/20 03:11:28;;;;;;;11.03;3.87;;;;;;;;;;4952301;28;20027;-70
2022/07/20 03:13:53;;;;;;;12.57;2.90;;;;;;;;;;4952355;28;20282;-69
2022/07/20 03:16:18;;;;;;;14.20;3.00;;;;;;;;;;4951896;28;20064;-70
2022/07/20 03:18:43;;;;;;;8.43;2.77;;;;;;;;;;4953265;29;20090;-70
2022/07/20 03:21:08;;;;;;;8.87;3.13;;;;;;;;;;4951620;28;20274;-71
2022/07/20 03:23:34;;;;;;;9.00;3.03;;;;;;;;;;4952793;28;20028;-70
2022/07/20 03:25:59;;;;;;;5.37;2.50;;;;;;;;;;4981288;23;20012;-68
2022/07/20 03:28:24;;;;;;;11.17;3.27;;;;;;;;;;4991392;28;20694;-68
2022/07/20 03:30:49;;;;;;;8.50;2.80;;;;;;;;;;4991672;28;20029;-68
2022/07/20 03:33:14;;;;;;;7.53;2.67;;;;;;;;;;4990169;28;20395;-68
2022/07/20 03:35:39;;;;;;;8.50;2.80;;;;;;;;;;4991288;28;20027;-68
2022/07/20 03:38:05;;;;;;;6.05;3.13;;;;;;;;;;4991424;28;20328;-68
2022/07/20 03:40:30;;;;;;;12.97;3.57;;;;;;;;;;4991783;28;20030;-68
2022/07/20 03:42:55;;;;;;;13.33;3.37;;;;;;;;;;4989757;28;20438;-68
2022/07/20 03:45:20;;;;;;;5.47;3.40;;;;;;;;;;4992926;28;20037;-68
2022/07/20 03:47:46;;;;;;;6.55;2.78;;;;;;;;;;4991999;28;20026;-68
2022/07/20 03:50:11;;;;;;;16.20;4.23;;;;;;;;;;4989045;28;20026;-68
2022/07/20 03:52:36;;;;;;;10.10;4.07;;;;;;;;;;4990454;28;20046;-69
2022/07/20 03:55:01;;;;;;;14.13;4.03;;;;;;;;;;4991578;28;20026;-68
2022/07/20 03:57:26;;;;;;;6.55;3.10;;;;;;;;;;4989933;28;20046;-68
2022/07/20 03:59:52;;;;;;;8.00;2.93;;;;;;;;;;4990453;28;20133;-68
2022/07/20 04:02:17;;;;;;;12.87;2.97;;;;;;;;;;4990967;28;20297;-69
2022/07/20 04:04:42;;;;;;;8.80;3.70;;;;;;;;;;4991299;28;20360;-68
2022/07/20 04:07:07;;;;;;;14.93;3.63;;;;;;;;;;4991377;28;20289;-68
2022/07/20 04:09:44;;;;;;;13.67;3.70;;;;;;;;;;4988149;28;20068;-68
2022/07/20 04:12:10;;;;;;;12.57;4.13;;;;;;;;;;4989260;28;20030;-69
2022/07/20 04:14:36;;;;;;;6.82;3.60;;;;;;;;;;4990202;28;20026;-68
2022/07/20 04:17:01;;;;;;;10.53;3.60;;;;;;;;;;4989327;28;20033;-68
2022/07/20 04:19:26;;;;;;;9.43;3.40;;;;;;;;;;4990386;28;20316;-68
2022/07/20 04:21:55;;;;;;;6.70;3.40;;;;;;;;;;4987489;28;20158;-68
2022/07/20 04:24:20;;;;;;;9.85;3.60;;;;;;;;;;4990312;28;20053;-68
2022/07/20 04:26:46;;;;;;;10.75;3.35;;;;;;;;;;4989628;28;20474;-68
2022/07/20 04:29:11;;;;;;;11.53;4.23;;;;;;;;;;4981781;28;20050;-68
2022/07/20 04:31:36;;;;;;;13.20;3.60;;;;;;;;;;4986898;28;20033;-68
2022/07/20 04:34:01;;;;;;;6.67;3.00;;;;;;;;;;4988086;28;20034;-69
2022/07/20 04:36:26;;;;;;;6.83;4.30;;;;;;;;;;4988707;28;20030;-69
2022/07/20 04:38:51;;;;;;;12.33;3.10;;;;;;;;;;4987432;28;20061;-69
2022/07/20 04:41:16;;;;;;;8.40;3.30;;;;;;;;;;4986084;28;20711;-69
2022/07/20 04:43:42;;;;;;;11.90;3.23;;;;;;;;;;4988546;28;20030;-69
2022/07/20 04:46:07;;;;;;;8.60;3.57;;;;;;;;;;4988632;28;20076;-69
2022/07/20 04:48:32;;;;;;;9.90;3.47;;;;;;;;;;4986607;28;20084;-69
2022/07/20 04:50:57;;;;;;;7.40;3.40;;;;;;;;;;4983764;28;20026;-69
2022/07/20 04:53:22;;;;;;;8.43;3.37;;;;;;;;;;4989404;28;20084;-69
2022/07/20 04:55:47;;;;;;;11.00;3.70;;;;;;;;;;4985531;28;20018;-70
2022/07/20 04:58:13;;;;;;;8.30;3.50;;;;;;;;;;4987657;28;20044;-69
2022/07/20 05:00:38;;;;;;;6.57;3.38;;;;;;;;;;4986916;28;20026;-69
2022/07/20 05:03:03;;;;;;;9.20;3.40;;;;;;;;;;4987425;28;20105;-69
2022/07/20 05:05:29;;;;;;;15.63;3.70;;;;;;;;;;4988272;28;20276;-69
2022/07/20 05:07:54;;;;;;;11.73;4.53;;;;;;;;;;4984431;28;20045;-69
2022/07/20 05:10:19;;;;;;;8.70;3.77;;;;;;;;;;4987676;28;20288;-69
2022/07/20 05:12:44;;;;;;;11.38;3.78;;;;;;;;;;4985681;28;20320;-69
2022/07/20 05:15:10;;;;;;;12.23;4.67;;;;;;;;;;4986672;28;20493;-69
2022/07/20 05:17:35;;;;;;;19.40;4.57;;;;;;;;;;4987365;28;20277;-69
2022/07/20 05:20:00;;;;;;;23.70;7.87;;;;;;;;;;4986106;28;20049;-69
2022/07/20 05:22:25;;;;;;;14.45;6.90;;;;;;;;;;4984989;28;20041;-69
2022/07/20 05:24:50;;;;;;;22.45;8.93;;;;;;;;;;4987043;28;20010;-69
2022/07/20 05:27:16;;;;;;;26.00;8.73;;;;;;;;;;4986811;28;20367;-68
2022/07/20 05:29:41;;;;;;;20.30;8.73;;;;;;;;;;4988559;28;20030;-69
2022/07/20 05:32:08;;;;;;;19.65;9.07;;;;;;;;;;4986268;28;20324;-69
2022/07/20 05:34:33;;;;;;;22.15;9.23;;;;;;;;;;4985500;28;20030;-69
2022/07/20 05:36:58;;;;;;;28.47;10.00;;;;;;;;;;4987228;28;20026;-69
2022/07/20 05:39:23;;;;;;;16.77;9.70;;;;;;;;;;4985468;28;20832;-69
2022/07/20 05:41:48;;;;;;;24.67;10.40;;;;;;;;;;4984992;28;20077;-69
2022/07/20 05:44:13;;;;;;;24.17;10.47;;;;;;;;;;4979397;28;20546;-69
2022/07/20 05:46:38;;;;;;;23.90;11.00;;;;;;;;;;4985432;28;20065;-69
2022/07/20 05:49:04;;;;;;;21.30;10.07;;;;;;;;;;4987625;28;20455;-69
2022/07/20 05:51:29;;;;;;;17.20;10.77;;;;;;;;;;4986991;28;20033;-69
2022/07/20 05:53:54;;;;;;;20.15;11.60;;;;;;;;;;4985484;28;20022;-70
2022/07/20 05:56:19;;;;;;;24.37;11.83;;;;;;;;;;4995482;28;20034;-67
2022/07/20 05:58:44;;;;;;;27.80;11.23;;;;;;;;;;4987368;28;20023;-68
2022/07/20 06:01:10;;;;;;;30.60;13.43;;;;;;;;;;4987403;28;20750;-68
2022/07/20 06:03:35;;;;;;;31.37;12.17;;;;;;;;;;4986108;28;20056;-68
2022/07/20 06:06:00;;;;;;;29.60;11.77;;;;;;;;;;4989425;28;20475;-68
2022/07/20 06:08:25;;;;;;;35.00;12.93;;;;;;;;;;4992545;28;20050;-68
2022/07/20 06:10:50;;;;;;;26.40;13.20;;;;;;;;;;4990683;28;20097;-68
2022/07/20 06:13:16;;;;;;;27.70;14.43;;;;;;;;;;4989075;28;20030;-68
2022/07/20 06:15:41;;;;;;;41.17;13.30;;;;;;;;;;4989354;28;20319;-68
2022/07/20 06:18:07;;;;;;;27.17;13.83;;;;;;;;;;4989052;28;20034;-68
2022/07/20 06:20:32;;;;;;;40.42;14.32;;;;;;;;;;4989144;28;20156;-68
2022/07/20 06:22:58;;;;;;;27.48;13.52;;;;;;;;;;4985258;28;20033;-69
2022/07/20 06:25:24;;;;;;;28.10;13.68;;;;;;;;;;4988531;28;20586;-69
2022/07/20 06:27:50;;;;;;;28.23;14.05;;;;;;;;;;4989082;28;20046;-70
2022/07/20 06:30:15;;;;;;;29.63;16.07;;;;;;;;;;4990906;28;20546;-69
2022/07/20 06:32:40;;;;;;;24.97;13.70;;;;;;;;;;4985787;28;21130;-71
2022/07/20 06:35:06;;;;;;;39.47;14.55;;;;;;;;;;4974663;28;20269;-70
2022/07/20 06:37:31;;;;;;;40.03;14.63;;;;;;;;;;4975808;28;20018;-70
2022/07/20 06:39:56;;;;;;;30.27;14.90;;;;;;;;;;4984611;28;20017;-69
2022/07/20 06:42:22;;;;;;;33.30;15.77;;;;;;;;;;4986178;28;20106;-69
2022/07/20 06:44:47;;;;;;;28.90;16.50;;;;;;;;;;4986848;28;20277;-70
2022/07/20 06:47:12;;;;;;;31.77;15.70;;;;;;;;;;4985035;28;20054;-71
2022/07/20 06:49:38;;;;;;;23.58;15.57;;;;;;;;;;4985240;28;20010;-70
2022/07/20 06:52:03;;;;;;;32.78;15.65;;;;;;;;;;4995140;28;20529;-69
2022/07/20 06:54:28;;;;;;;34.35;16.35;;;;;;;;;;4989774;28;20390;-69
2022/07/20 06:56:54;;;;;;;36.50;16.85;;;;;;;;;;4990757;28;20463;-69
2022/07/20 06:59:19;;;;;;;42.67;15.68;;;;;;;;;;4989754;28;20423;-69
2022/07/20 07:01:45;;;;;;;29.52;15.13;;;;;;;;;;4990351;28;20077;-70
2022/07/20 07:04:10;;;;;;;34.60;16.43;;;;;;;;;;4989072;28;20031;-69
2022/07/20 07:06:35;;;;;;;31.85;16.60;;;;;;;;;;4991884;28;20312;-70
2022/07/20 07:09:00;;;;;;;32.07;16.90;;;;;;;;;;4992312;28;20026;-69
2022/07/20 07:11:26;;;;;;;34.00;15.93;;;;;;;;;;4990857;28;20018;-70
2022/07/20 07:13:51;;;;;;;35.45;17.42;;;;;;;;;;4990599;28;20270;-70
2022/07/20 07:16:16;;;;;;;37.73;17.30;;;;;;;;;;4986434;28;20018;-69
2022/07/20 07:18:41;;;;;;;29.73;15.75;;;;;;;;;;4990462;28;20046;-71
2022/07/20 07:21:07;;;;;;;34.35;17.35;;;;;;;;;;4986278;28;20418;-69
2022/07/20 07:23:32;;;;;;;33.00;16.90;;;;;;;;;;4990309;28;20030;-70
2022/07/20 07:25:57;;;;;;;41.20;15.57;;;;;;;;;;4988879;28;20454;-70
2022/07/20 07:28:22;;;;;;;31.73;17.50;;;;;;;;;;4987784;28;20750;-69
2022/07/20 07:30:50;;;;;;;38.33;17.40;;;;;;;;;;4985931;28;20274;-69
2022/07/20 07:33:15;;;;;;;36.05;18.58;;;;;;;;;;4988812;28;20297;-70
2022/07/20 07:35:43;;;;;;;30.17;17.53;;;;;;;;;;4984984;28;20022;-70
2022/07/20 07:38:09;;;;;;;28.25;16.92;;;;;;;;;;4990908;28;20284;-70
2022/07/20 07:40:34;;;;;;;33.05;17.70;;;;;;;;;;4989240;28;20453;-70
2022/07/20 07:42:59;;;;;;;41.53;20.27;;;;;;;;;;4985789;28;20112;-69
2022/07/20 07:45:24;;;;;;;40.23;17.20;;;;;;;;;;4985174;28;20022;-69
2022/07/20 07:47:49;;;;;;;41.07;16.70;;;;;;;;;;4986513;28;20176;-69
2022/07/20 07:50:14;;;;;;;39.27;16.87;;;;;;;;;;4989983;28;20596;-69
2022/07/20 07:52:40;;;;;;;27.23;17.03;;;;;;;;;;4991254;28;20765;-69
2022/07/20 07:55:05;;;;;;;36.67;16.83;;;;;;;;;;4990815;28;20771;-69
2022/07/20 07:57:30;;;;;;;33.13;18.10;;;;;;;;;;4990812;28;20030;-69
2022/07/20 07:59:55;;;;;;;34.70;17.85;;;;;;;;;;4992280;28;20030;-69
2022/07/20 08:02:21;;;;;;;33.33;17.13;;;;;;;;;;4989663;28;20390;-69
2022/07/20 08:04:46;;;;;;;32.70;17.38;;;;;;;;;;4996155;28;20992;-69
2022/07/20 08:07:11;;;;;;;32.47;17.37;;;;;;;;;;4987660;28;20026;-69
2022/07/20 08:09:37;;;;;;;33.58;17.30;;;;;;;;;;4991995;28;20014;-69
2022/07/20 08:12:05;;;;;;;30.30;17.65;;;;;;;;;;4989546;28;20026;-69
2022/07/20 08:14:30;;;;;;;30.33;17.30;;;;;;;;;;4992024;28;20026;-70
2022/07/20 08:16:55;;;;;;;32.47;17.58;;;;;;;;;;4993567;28;20394;-69
2022/07/20 08:19:21;;;;;;;27.53;15.33;;;;;;;;;;4994154;28;20022;-70
2022/07/20 08:21:46;;;;;;;31.07;16.77;;;;;;;;;;4991326;28;20161;-70
2022/07/20 08:24:14;;;;;;;40.53;16.90;;;;;;;;;;4991889;28;20033;-70
2022/07/20 08:26:39;;;;;;;39.60;16.13;;;;;;;;;;4991473;28;20281;-69
2022/07/20 08:29:04;;;;;;;29.60;15.97;;;;;;;;;;4990268;28;20072;-69
2022/07/20 08:31:29;;;;;;;39.40;15.03;;;;;;;;;;4990243;28;20038;-69
2022/07/20 08:33:54;;;;;;;23.60;14.17;;;;;;;;;;4990511;28;20421;-69
2022/07/20 08:36:19;;;;;;;31.53;15.10;;;;;;;;;;4991112;28;20034;-69
2022/07/20 08:38:45;;;;;;;29.13;16.40;;;;;;;;;;4991888;28;20356;-69
2022/07/20 08:41:10;;;;;;;36.37;16.23;;;;;;;;;;4990322;28;20030;-69
2022/07/20 08:43:35;;;;;;;32.93;17.13;;;;;;;;;;4991615;28;20531;-69
2022/07/20 08:46:02;;;;;;;41.63;15.73;;;;;;;;;;4990073;28;20073;-70
2022/07/20 08:48:27;;;;;;;31.08;15.65;;;;;;;;;;4991280;28;20254;-70
2022/07/20 08:50:52;;;;;;;30.13;16.90;;;;;;;;;;4991812;28;20399;-69
2022/07/20 08:53:18;;;;;;;44.43;16.30;;;;;;;;;;4990679;28;20054;-69
2022/07/20 08:55:43;;;;;;;25.98;15.90;;;;;;;;;;4991421;28;20549;-70
2022/07/20 08:58:09;;;;;;;31.15;16.40;;;;;;;;;;4991085;28;20021;-69
2022/07/20 09:00:34;;;;;;;31.83;15.95;;;;;;;;;;4991579;28;20364;-70
2022/07/20 09:03:01;;;;;;;36.67;15.77;;;;;;;;;;4991370;28;20053;-69
2022/07/20 09:05:28;;;;;;;34.50;16.27;;;;;;;;;;4990246;28;20265;-69
2022/07/20 09:07:55;;;;;;;28.48;15.70;;;;;;;;;;4990565;28;20081;-69
2022/07/20 09:10:25;;;;;;;30.42;15.05;;;;;;;;;;4990522;28;20077;-70
2022/07/20 09:12:56;;;;;;;32.72;16.10;;;;;;;;;;4991567;28;20049;-71
2022/07/20 09:15:25;;;;;;;25.98;14.38;;;;;;;;;;4988877;28;21253;-69
2022/07/20 09:18:00;;;;;;;34.47;16.48;;;;;;;;;;4992075;28;20025;-70
2022/07/20 09:20:29;;;;;;;30.02;15.68;;;;;;;;;;4991235;28;20022;-71
2022/07/20 09:22:59;;;;;;;36.87;14.87;;;;;;;;;;5003887;28;20105;-70
2022/07/20 09:25:24;;;;;;;28.67;14.63;;;;;;;;;;5007270;28;20014;-71
2022/07/20 09:27:49;;;;;;;34.70;15.25;;;;;;;;;;4988788;28;20053;-69
2022/07/20 09:30:16;;;;;;;38.97;16.07;;;;;;;;;;4988089;28;20709;-70
2022/07/20 09:32:55;;;;;;;33.20;13.70;;;;;;;;;;4988590;28;20022;-69
2022/07/20 09:35:21;;;;;;;27.75;13.80;;;;;;;;;;4990029;28;20038;-71
2022/07/20 09:37:47;;;;;;;29.35;14.52;;;;;;;;;;4988201;28;20030;-70
2022/07/20 09:40:12;;;;;;;25.13;15.18;;;;;;;;;;4995447;28;20600;-69
2022/07/20 09:42:39;;;;;;;32.00;15.15;;;;;;;;;;4990097;28;20027;-70
2022/07/20 09:45:20;;;;;;;23.73;14.63;;;;;;;;;;4988466;28;20518;-70
2022/07/20 09:48:04;;;;;;;23.35;14.13;;;;;;;;;;4988775;28;20029;-70
2022/07/20 09:50:30;;;;;;;23.42;13.35;;;;;;;;;;4989177;28;20030;-70
2022/07/20 09:52:56;;;;;;;25.42;13.32;;;;;;;;;;4989118;28;20019;-70
2022/07/20 09:55:21;;;;;;;25.88;13.80;;;;;;;;;;4990099;28;20029;-70
2022/07/20 09:57:47;;;;;;;30.48;13.57;;;;;;;;;;4988234;28;20390;-70
2022/07/20 10:00:13;;;;;;;23.92;13.57;;;;;;;;;;4988770;28;20031;-70
2022/07/20 10:02:38;;;;;;;21.65;13.82;;;;;;;;;;4988271;28;20025;-70
2022/07/20 10:05:04;;;;;;;25.90;13.93;;;;;;;;;;4989500;28;20022;-70
2022/07/20 10:07:29;;;;;;;21.52;12.77;;;;;;;;;;4988726;28;20133;-70
2022/07/20 10:09:55;;;;;;;23.80;12.55;;;;;;;;;;4988095;28;20101;-71
2022/07/20 10:12:20;;;;;;;20.65;11.55;;;;;;;;;;4989627;28;20022;-70
2022/07/20 10:14:48;;;;;;;32.10;13.00;;;;;;;;;;4989563;28;20041;-70
2022/07/20 10:17:13;;;;;;;21.33;12.68;;;;;;;;;;4985384;28;20054;-70
2022/07/20 10:19:46;;;;;;;26.33;13.82;;;;;;;;;;4989088;28;20065;-70
2022/07/20 10:22:11;;;;;;;25.55;12.82;;;;;;;;;;4988803;28;20050;-70
2022/07/20 10:24:38;;;;;;;25.40;12.07;;;;;;;;;;4989376;28;20061;-70
2022/07/20 10:27:16;;;;;;;21.95;12.05;;;;;;;;;;4992330;28;20026;-70
2022/07/20 10:29:41;;;;;;;17.05;10.82;;;;;;;;;;4991917;28;20025;-70
2022/07/20 10:32:09;;;;;;;20.33;11.88;;;;;;;;;;4994174;28;20022;-70
2022/07/20 10:34:42;;;;;;;24.38;11.25;;;;;;;;;;4993535;28;20090;-70
2022/07/20 10:37:25;;;;;;;21.77;11.98;;;;;;;;;;4993966;28;20042;-70
2022/07/20 10:39:51;;;;;;;25.33;12.07;;;;;;;;;;4991869;28;20383;-70
2022/07/20 10:42:20;;;;;;;29.20;12.57;;;;;;;;;;4994438;28;20018;-69
2022/07/20 10:44:45;;;;;;;24.67;13.48;;;;;;;;;;4994363;28;20029;-70
2022/07/20 10:47:30;;;;;;;24.83;12.73;;;;;;;;;;4992746;28;20030;-69
2022/07/20 10:50:00;;;;;;;22.33;13.88;;;;;;;;;;4991817;28;20044;-70
2022/07/20 10:52:26;;;;;;;35.65;14.80;;;;;;;;;;4991364;28;20026;-70
2022/07/20 10:54:51;;;;;;;26.65;13.75;;;;;;;;;;4993807;28;20029;-69
2022/07/20 10:57:17;;;;;;;28.93;14.97;;;;;;;;;;4991658;28;20030;-69
2022/07/20 10:59:42;;;;;;;26.70;14.75;;;;;;;;;;4991852;28;20109;-70
2022/07/20 11:02:07;;;;;;;29.93;13.93;;;;;;;;;;4992793;28;20470;-70
2022/07/20 11:04:41;;;;;;;23.45;14.88;;;;;;;;;;4993439;28;20049;-70
2022/07/20 11:07:06;;;;;;;25.38;13.32;;;;;;;;;;4990019;28;20475;-70
2022/07/20 11:09:31;;;;;;;26.87;14.37;;;;;;;;;;4990093;28;20049;-69
2022/07/20 11:11:56;;;;;;;27.80;14.70;;;;;;;;;;4992605;28;20029;-69
2022/07/20 11:14:22;;;;;;;28.53;13.40;;;;;;;;;;4992302;28;20386;-69
2022/07/20 11:16:53;;;;;;;24.95;13.77;;;;;;;;;;4990479;28;20129;-69
2022/07/20 11:19:18;;;;;;;22.95;13.95;;;;;;;;;;4989331;28;20113;-69
2022/07/20 11:21:44;;;;;;;30.97;13.43;;;;;;;;;;4991679;28;20109;-69
2022/07/20 11:24:23;;;;;;;32.55;14.18;;;;;;;;;;4991912;28;20136;-69
2022/07/20 11:26:48;;;;;;;30.20;13.40;;;;;;;;;;4990183;28;20029;-70
2022/07/20 11:29:14;;;;;;;28.80;13.50;;;;;;;;;;4992187;28;20018;-69
2022/07/20 11:31:39;;;;;;;23.25;13.32;;;;;;;;;;4990952;28;20081;-69
2022/07/20 11:34:04;;;;;;;24.00;13.32;;;;;;;;;;4992171;28;20026;-70
2022/07/20 11:36:31;;;;;;;25.87;13.83;;;;;;;;;;4994872;28;20474;-69
2022/07/20 11:38:58;;;;;;;26.00;13.60;;;;;;;;;;4990190;28;21020;-70
2022/07/20 11:41:33;;;;;;;18.25;13.10;;;;;;;;;;4991215;28;20028;-70
2022/07/20 11:43:59;;;;;;;28.48;12.32;;;;;;;;;;4991434;28;20022;-69
2022/07/20 11:46:34;;;;;;;29.52;13.77;;;;;;;;;;4991000;28;20010;-69
2022/07/20 11:49:02;;;;;;;25.90;13.35;;;;;;;;;;4991915;28;20019;-69
2022/07/20 11:51:29;;;;;;;25.75;11.77;;;;;;;;;;4990715;28;20022;-70
2022/07/20 11:53:54;;;;;;;23.92;12.15;;;;;;;;;;4991957;28;20040;-69
2022/07/20 11:56:21;;;;;;;26.17;11.80;;;;;;;;;;4990895;28;20410;-69
2022/07/20 11:58:47;;;;;;;22.30;10.25;;;;;;;;;;4989041;28;20050;-70
2022/07/20 12:01:14;;;;;;;18.15;10.18;;;;;;;;;;4991483;28;20045;-70
2022/07/20 12:03:40;;;;;;;24.15;11.20;;;;;;;;;;4992202;28;20041;-69
2022/07/20 12:06:06;;;;;;;24.20;10.55;;;;;;;;;;4991256;28;20045;-70
2022/07/20 12:08:32;;;;;;;16.13;8.68;;;;;;;;;;4991191;28;20076;-70
2022/07/20 12:10:57;;;;;;;19.53;8.63;;;;;;;;;;4992596;28;20418;-69
2022/07/20 12:13:23;;;;;;;19.13;10.02;;;;;;;;;;4991041;28;20320;-69
2022/07/20 12:16:01;;;;;;;14.27;8.23;;;;;;;;;;4990909;28;20026;-70
2022/07/20 12:18:35;;;;;;;19.55;9.10;;;;;;;;;;5003220;28;20081;-70
2022/07/20 12:21:01;;;;;;;16.17;8.13;;;;;;;;;;4989177;28;20555;-69
2022/07/20 12:23:26;;;;;;;17.00;8.00;;;;;;;;;;4991347;28;20166;-69
2022/07/20 12:25:52;;;;;;;18.52;8.70;;;;;;;;;;4991202;28;20419;-69
2022/07/20 12:28:26;;;;;;;18.33;7.93;;;;;;;;;;4991124;28;20049;-69
2022/07/20 12:30:52;;;;;;;12.18;6.25;;;;;;;;;;4989791;28;20022;-69
2022/07/20 12:33:17;;;;;;;13.10;6.83;;;;;;;;;;4990851;28;20438;-71
2022/07/20 12:35:44;;;;;;;11.57;7.27;;;;;;;;;;4990723;28;20018;-69
2022/07/20 12:38:09;;;;;;;12.60;6.28;;;;;;;;;;4990898;28;20327;-69
2022/07/20 12:40:44;;;;;;;10.85;6.10;;;;;;;;;;4991042;28;20046;-69
2022/07/20 12:43:28;;;;;;;13.02;7.30;;;;;;;;;;4990760;28;20105;-69
2022/07/20 12:45:54;;;;;;;13.38;6.53;;;;;;;;;;4989659;28;20118;-69
2022/07/20 12:48:19;;;;;;;16.42;6.78;;;;;;;;;;4989473;28;20609;-69
2022/07/20 12:50:44;;;;;;;9.77;6.20;;;;;;;;;;4988966;28;20076;-70
2022/07/20 12:53:09;;;;;;;12.68;5.63;;;;;;;;;;4990775;28;20033;-70
2022/07/20 12:55:35;;;;;;;9.23;5.63;;;;;;;;;;4989948;28;20034;-69
2022/07/20 12:58:00;;;;;;;11.17;5.30;;;;;;;;;;4990371;28;20029;-70
2022/07/20 13:00:25;;;;;;;8.13;5.40;;;;;;;;;;4989512;28;20339;-69
2022/07/20 13:02:51;;;;;;;14.15;6.22;;;;;;;;;;4990356;28;20030;-70
2022/07/20 13:05:16;;;;;;;12.95;5.28;;;;;;;;;;4990710;28;20018;-69
2022/07/20 13:07:43;;;;;;;11.73;5.90;;;;;;;;;;4988955;28;20113;-69
2022/07/20 13:10:08;;;;;;;20.70;6.28;;;;;;;;;;4988936;28;20262;-70
2022/07/20 13:12:34;;;;;;;9.63;6.20;;;;;;;;;;4988229;28;20037;-70
2022/07/20 13:14:59;;;;;;;12.27;5.57;;;;;;;;;;4990560;28;20106;-70
2022/07/20 13:17:24;;;;;;;8.40;5.30;;;;;;;;;;4988852;28;20284;-70
2022/07/20 13:19:49;;;;;;;11.47;5.63;;;;;;;;;;4989973;28;20042;-70
2022/07/20 13:22:14;;;;;;;11.17;6.20;;;;;;;;;;4986889;28;20109;-70
2022/07/20 13:24:40;;;;;;;9.20;5.30;;;;;;;;;;4988323;28;20498;-70
2022/07/20 13:27:05;;;;;;;11.90;5.43;;;;;;;;;;4988988;28;20026;-70
2022/07/20 13:29:30;;;;;;;16.92;6.18;;;;;;;;;;4989248;28;20804;-70
2022/07/20 13:31:55;;;;;;;9.33;6.13;;;;;;;;;;4987434;28;20026;-70
2022/07/20 13:34:21;;;;;;;12.43;5.78;;;;;;;;;;4989211;28;20076;-70
2022/07/20 13:36:46;;;;;;;9.53;5.23;;;;;;;;;;4989935;28;20584;-70
2022/07/20 13:39:11;;;;;;;13.48;5.70;;;;;;;;;;4988620;28;20651;-70
2022/07/20 13:41:36;;;;;;;7.53;5.33;;;;;;;;;;4989038;28;20455;-70
2022/07/20 13:44:01;;;;;;;13.30;5.90;;;;;;;;;;4989567;28;20014;-70
2022/07/20 13:46:27;;;;;;;13.10;6.07;;;;;;;;;;4988480;28;20277;-70
2022/07/20 13:48:52;;;;;;;16.98;5.80;;;;;;;;;;4989653;28;20514;-70
2022/07/20 13:51:17;;;;;;;11.00;6.30;;;;;;;;;;4988055;28;20040;-70
2022/07/20 13:53:42;;;;;;;8.40;5.03;;;;;;;;;;4989173;28;20531;-70
2022/07/20 13:56:08;;;;;;;10.43;5.57;;;;;;;;;;4989754;28;20062;-70
2022/07/20 13:58:34;;;;;;;9.63;5.57;;;;;;;;;;4987083;28;20030;-70
2022/07/20 14:01:00;;;;;;;9.57;5.40;;;;;;;;;;4991788;28;20426;-70
2022/07/20 14:03:25;;;;;;;12.23;5.85;;;;;;;;;;4992044;28;20065;-70
2022/07/20 14:05:50;;;;;;;9.77;5.60;;;;;;;;;;4993501;28;20014;-70
2022/07/20 14:08:15;;;;;;;10.23;5.63;;;;;;;;;;4991875;28;20376;-71
2022/07/20 14:10:40;;;;;;;15.23;5.80;;;;;;;;;;4992125;28;20026;-69
2022/07/20 14:13:06;;;;;;;13.60;5.57;;;;;;;;;;4990360;28;20019;-69
2022/07/20 14:15:31;;;;;;;10.93;5.63;;;;;;;;;;4991843;28;20331;-69
2022/07/20 14:17:56;;;;;;;11.97;5.70;;;;;;;;;;4990831;28;20022;-69
2022/07/20 14:20:21;;;;;;;9.67;5.77;;;;;;;;;;4992472;28;20062;-70
2022/07/20 14:22:47;;;;;;;11.33;5.00;;;;;;;;;;4991806;28;20034;-69
2022/07/20 14:25:12;;;;;;;7.97;5.10;;;;;;;;;;4991845;28;20340;-69
2022/07/20 14:27:38;;;;;;;12.23;5.43;;;;;;;;;;4992225;28;20476;-71